sensor_id;sensor_type;location;lat;lon;timestamp;temperature;humidity
7598;DHT22;3840;59.32098800;18.06423600;2023-04-28T00:01:16;3.30;99.90
7598;DHT22;3840;59.32098800;18.06423600;2023-04-28T00:03:42;3.20;99.90
7598;DHT22;3840;59.32098800;18.06423600;2023-04-28T00:06:08;3.20;99.90
7598;DHT22;3840;59.32098800;18.06423600;2023-04-28T00:08:34;3.10;99.90
7598;DHT22;3840;59.32098800;18.06423600;2023-04-28T00:11:00;3.10;99.90
7598;DHT22;3840;59.32098800;18.06423600;2023-04-28T00:13:25;3.00;99.90
7598;DHT22;3840;59.32098800;18.06423600;2023-04-28T00:15:53;3.00;99.90
7598;DHT22;3840;59.32098800;18.06423600;2023-04-28T00:18:21;3.00;99.90
7598;DHT22;3840;59.32098800;18.06423600;2023-04-28T00:20:46;3.00;99.90
7598;DHT22;3840;59.32098800;18.06423600;2023-04-28T00:23:12;3.00;99.90
7598;DHT22;3840;59.32098800;18.06423600;2023-04-28T00:25:38;3.00;99.90
7598;DHT22;3840;59.32098800;18.06423600;2023-04-28T00:28:04;2.90;99.90
7598;DHT22;3840;59.32098800;18.06423600;2023-04-28T00:30:30;2.90;99.90
7598;DHT22;3840;59.32098800;18.06423600;2023-04-28T00:32:56;2.90;99.90
7598;DHT22;3840;59.32098800;18.06423600;2023-04-28T00:35:22;2.90;99.90
7598;DHT22;3840;59.32098800;18.06423600;2023-04-28T00:37:48;2.80;99.90
7598;DHT22;3840;59.32098800;18.06423600;2023-04-28T00:40:13;2.70;99.90
7598;DHT22;3840;59.32098800;18.06423600;2023-04-28T00:42:39;2.70;99.90
7598;DHT22;3840;59.32098800;18.06423600;2023-04-28T00:45:05;2.70;99.90
7598;DHT22;3840;59.32098800;18.06423600;2023-04-28T00:47:36;2.70;99.90
7598;DHT22;3840;59.32098800;18.06423600;2023-04-28T00:50:03;2.70;99.90
7598;DHT22;3840;59.32098800;18.06423600;2023-04-28T00:52:31;2.70;99.90
7598;DHT22;3840;59.32098800;18.06423600;2023-04-28T00:54:56;2.60;99.90
7598;DHT22;3840;59.32098800;18.06423600;2023-04-28T00:57:22;2.60;99.90
7598;DHT22;3840;59.32098800;18.06423600;2023-04-28T00:59:49;2.50;99.90
7598;DHT22;3840;59.32098800;18.06423600;2023-04-28T01:02:15;2.60;99.90
7598;DHT22;3840;59.32098800;18.06423600;2023-04-28T01:04:44;2.70;99.90
7598;DHT22;3840;59.32098800;18.06423600;2023-04-28T01:07:10;2.50;99.90
7598;DHT22;3840;59.32098800;18.06423600;2023-04-28T01:09:36;2.50;99.90
7598;DHT22;3840;59.32098800;18.06423600;2023-04-28T01:12:02;2.50;99.90
7598;DHT22;3840;59.32098800;18.06423600;2023-04-28T01:14:28;2.50;99.90
7598;DHT22;3840;59.32098800;18.06423600;2023-04-28T01:16:53;2.50;99.90
7598;DHT22;3840;59.32098800;18.06423600;2023-04-28T01:19:21;2.50;99.90
7598;DHT22;3840;59.32098800;18.06423600;2023-04-28T01:21:47;2.50;99.90
7598;DHT22;3840;59.32098800;18.06423600;2023-04-28T01:24:13;2.40;99.90
7598;DHT22;3840;59.32098800;18.06423600;2023-04-28T01:26:39;2.40;99.90
7598;DHT22;3840;59.32098800;18.06423600;2023-04-28T01:29:05;2.40;99.90
7598;DHT22;3840;59.32098800;18.06423600;2023-04-28T01:31:30;2.40;99.90
7598;DHT22;3840;59.32098800;18.06423600;2023-04-28T01:33:56;2.40;99.90
7598;DHT22;3840;59.32098800;18.06423600;2023-04-28T01:36:23;2.40;99.90
7598;DHT22;3840;59.32098800;18.06423600;2023-04-28T01:38:49;2.30;99.90
7598;DHT22;3840;59.32098800;18.06423600;2023-04-28T01:41:15;2.30;99.90
7598;DHT22;3840;59.32098800;18.06423600;2023-04-28T01:43:41;2.30;99.90
7598;DHT22;3840;59.32098800;18.06423600;2023-04-28T01:46:09;2.30;99.90
7598;DHT22;3840;59.32098800;18.06423600;2023-04-28T01:48:34;2.20;99.90
7598;DHT22;3840;59.32098800;18.06423600;2023-04-28T01:51:00;2.20;99.90
7598;DHT22;3840;59.32098800;18.06423600;2023-04-28T01:53:26;2.20;99.90
7598;DHT22;3840;59.32098800;18.06423600;2023-04-28T01:55:52;2.20;99.90
7598;DHT22;3840;59.32098800;18.06423600;2023-04-28T01:58:18;2.20;99.90
7598;DHT22;3840;59.32098800;18.06423600;2023-04-28T02:00:44;2.20;99.90
7598;DHT22;3840;59.32098800;18.06423600;2023-04-28T02:03:10;2.20;99.90
7598;DHT22;3840;59.32098800;18.06423600;2023-04-28T02:05:36;2.20;99.90
7598;DHT22;3840;59.32098800;18.06423600;2023-04-28T02:08:03;2.10;99.90
7598;DHT22;3840;59.32098800;18.06423600;2023-04-28T02:10:28;2.10;99.90
7598;DHT22;3840;59.32098800;18.06423600;2023-04-28T02:12:54;2.10;99.90
7598;DHT22;3840;59.32098800;18.06423600;2023-04-28T02:15:20;2.10;99.90
7598;DHT22;3840;59.32098800;18.06423600;2023-04-28T02:17:46;2.10;99.90
7598;DHT22;3840;59.32098800;18.06423600;2023-04-28T02:20:12;2.10;99.90
7598;DHT22;3840;59.32098800;18.06423600;2023-04-28T02:22:39;2.10;99.90
7598;DHT22;3840;59.32098800;18.06423600;2023-04-28T02:25:05;2.10;99.90
7598;DHT22;3840;59.32098800;18.06423600;2023-04-28T02:27:31;2.10;99.90
7598;DHT22;3840;59.32098800;18.06423600;2023-04-28T02:29:57;2.10;99.90
7598;DHT22;3840;59.32098800;18.06423600;2023-04-28T02:32:23;2.20;99.90
7598;DHT22;3840;59.32098800;18.06423600;2023-04-28T02:34:53;2.10;99.90
7598;DHT22;3840;59.32098800;18.06423600;2023-04-28T02:37:19;2.10;99.90
7598;DHT22;3840;59.32098800;18.06423600;2023-04-28T02:39:45;2.10;99.90
7598;DHT22;3840;59.32098800;18.06423600;2023-04-28T02:42:10;2.10;99.90
7598;DHT22;3840;59.32098800;18.06423600;2023-04-28T02:44:36;2.10;99.90
7598;DHT22;3840;59.32098800;18.06423600;2023-04-28T02:47:02;2.20;99.90
7598;DHT22;3840;59.32098800;18.06423600;2023-04-28T02:49:29;2.10;99.90
7598;DHT22;3840;59.32098800;18.06423600;2023-04-28T02:51:56;2.10;99.90
7598;DHT22;3840;59.32098800;18.06423600;2023-04-28T02:54:22;2.20;99.90
7598;DHT22;3840;59.32098800;18.06423600;2023-04-28T02:56:54;2.20;99.90
7598;DHT22;3840;59.32098800;18.06423600;2023-04-28T02:59:21;2.30;99.90
7598;DHT22;3840;59.32098800;18.06423600;2023-04-28T03:01:47;2.40;99.90
7598;DHT22;3840;59.32098800;18.06423600;2023-04-28T03:04:13;2.40;99.90
7598;DHT22;3840;59.32098800;18.06423600;2023-04-28T03:06:40;2.40;99.90
7598;DHT22;3840;59.32098800;18.06423600;2023-04-28T03:09:07;2.50;99.90
7598;DHT22;3840;59.32098800;18.06423600;2023-04-28T03:11:33;2.50;99.90
7598;DHT22;3840;59.32098800;18.06423600;2023-04-28T03:13:59;2.60;99.90
7598;DHT22;3840;59.32098800;18.06423600;2023-04-28T03:16:25;2.60;99.90
7598;DHT22;3840;59.32098800;18.06423600;2023-04-28T03:18:51;2.60;99.90
7598;DHT22;3840;59.32098800;18.06423600;2023-04-28T03:21:17;2.70;99.90
7598;DHT22;3840;59.32098800;18.06423600;2023-04-28T03:23:43;2.90;99.90
7598;DHT22;3840;59.32098800;18.06423600;2023-04-28T03:26:09;3.40;99.90
7598;DHT22;3840;59.32098800;18.06423600;2023-04-28T03:28:34;3.50;99.90
7598;DHT22;3840;59.32098800;18.06423600;2023-04-28T03:31:00;3.40;99.90
7598;DHT22;3840;59.32098800;18.06423600;2023-04-28T03:33:27;3.20;99.90
7598;DHT22;3840;59.32098800;18.06423600;2023-04-28T03:35:52;3.10;99.90
7598;DHT22;3840;59.32098800;18.06423600;2023-04-28T03:38:19;3.10;99.90
7598;DHT22;3840;59.32098800;18.06423600;2023-04-28T03:40:45;3.10;99.90
7598;DHT22;3840;59.32098800;18.06423600;2023-04-28T03:43:11;3.10;99.90
7598;DHT22;3840;59.32098800;18.06423600;2023-04-28T03:45:37;3.10;99.90
7598;DHT22;3840;59.32098800;18.06423600;2023-04-28T03:48:03;3.10;99.90
7598;DHT22;3840;59.32098800;18.06423600;2023-04-28T03:50:29;3.00;99.90
7598;DHT22;3840;59.32098800;18.06423600;2023-04-28T03:52:54;3.10;99.90
7598;DHT22;3840;59.32098800;18.06423600;2023-04-28T03:55:20;3.10;99.90
7598;DHT22;3840;59.32098800;18.06423600;2023-04-28T03:57:46;3.10;99.90
7598;DHT22;3840;59.32098800;18.06423600;2023-04-28T04:00:13;3.10;99.90
7598;DHT22;3840;59.32098800;18.06423600;2023-04-28T04:02:39;3.10;99.90
7598;DHT22;3840;59.32098800;18.06423600;2023-04-28T04:05:05;3.10;99.90
7598;DHT22;3840;59.32098800;18.06423600;2023-04-28T04:07:31;3.10;99.90
7598;DHT22;3840;59.32098800;18.06423600;2023-04-28T04:09:56;3.20;99.90
7598;DHT22;3840;59.32098800;18.06423600;2023-04-28T04:12:22;3.20;99.90
7598;DHT22;3840;59.32098800;18.06423600;2023-04-28T04:14:48;3.20;99.90
7598;DHT22;3840;59.32098800;18.06423600;2023-04-28T04:17:15;3.20;99.90
7598;DHT22;3840;59.32098800;18.06423600;2023-04-28T04:19:40;3.20;99.90
7598;DHT22;3840;59.32098800;18.06423600;2023-04-28T04:22:07;3.20;99.90
7598;DHT22;3840;59.32098800;18.06423600;2023-04-28T04:24:34;3.30;99.90
7598;DHT22;3840;59.32098800;18.06423600;2023-04-28T04:27:00;3.30;99.90
7598;DHT22;3840;59.32098800;18.06423600;2023-04-28T04:29:25;3.40;99.90
7598;DHT22;3840;59.32098800;18.06423600;2023-04-28T04:31:51;3.40;99.90
7598;DHT22;3840;59.32098800;18.06423600;2023-04-28T04:34:17;3.40;99.90
7598;DHT22;3840;59.32098800;18.06423600;2023-04-28T04:36:43;3.40;99.90
7598;DHT22;3840;59.32098800;18.06423600;2023-04-28T04:39:08;3.40;99.90
7598;DHT22;3840;59.32098800;18.06423600;2023-04-28T04:41:35;3.40;99.90
7598;DHT22;3840;59.32098800;18.06423600;2023-04-28T04:44:03;3.40;99.90
7598;DHT22;3840;59.32098800;18.06423600;2023-04-28T04:46:29;3.60;99.90
7598;DHT22;3840;59.32098800;18.06423600;2023-04-28T04:48:56;3.60;99.90
7598;DHT22;3840;59.32098800;18.06423600;2023-04-28T04:51:22;3.60;99.90
7598;DHT22;3840;59.32098800;18.06423600;2023-04-28T04:53:47;3.60;99.90
7598;DHT22;3840;59.32098800;18.06423600;2023-04-28T04:56:14;3.70;99.90
7598;DHT22;3840;59.32098800;18.06423600;2023-04-28T04:58:42;3.90;99.90
7598;DHT22;3840;59.32098800;18.06423600;2023-04-28T05:01:09;4.00;99.90
7598;DHT22;3840;59.32098800;18.06423600;2023-04-28T05:03:34;4.00;99.90
7598;DHT22;3840;59.32098800;18.06423600;2023-04-28T05:06:00;3.90;99.90
7598;DHT22;3840;59.32098800;18.06423600;2023-04-28T05:08:28;4.00;99.90
7598;DHT22;3840;59.32098800;18.06423600;2023-04-28T05:10:54;4.00;99.90
7598;DHT22;3840;59.32098800;18.06423600;2023-04-28T05:13:20;4.00;99.90
7598;DHT22;3840;59.32098800;18.06423600;2023-04-28T05:15:45;4.00;99.90
7598;DHT22;3840;59.32098800;18.06423600;2023-04-28T05:18:13;3.90;99.90
7598;DHT22;3840;59.32098800;18.06423600;2023-04-28T05:20:39;3.90;99.90
7598;DHT22;3840;59.32098800;18.06423600;2023-04-28T05:23:05;3.90;99.90
7598;DHT22;3840;59.32098800;18.06423600;2023-04-28T05:25:31;4.00;99.90
7598;DHT22;3840;59.32098800;18.06423600;2023-04-28T05:27:57;4.00;99.90
7598;DHT22;3840;59.32098800;18.06423600;2023-04-28T05:30:23;4.10;99.90
7598;DHT22;3840;59.32098800;18.06423600;2023-04-28T05:32:49;4.20;99.90
7598;DHT22;3840;59.32098800;18.06423600;2023-04-28T05:35:14;4.10;99.90
7598;DHT22;3840;59.32098800;18.06423600;2023-04-28T05:37:40;4.00;99.90
7598;DHT22;3840;59.32098800;18.06423600;2023-04-28T05:40:09;4.00;99.90
7598;DHT22;3840;59.32098800;18.06423600;2023-04-28T05:42:35;3.90;99.90
7598;DHT22;3840;59.32098800;18.06423600;2023-04-28T05:45:01;4.00;99.90
7598;DHT22;3840;59.32098800;18.06423600;2023-04-28T05:47:28;4.00;99.90
7598;DHT22;3840;59.32098800;18.06423600;2023-04-28T05:49:55;4.00;99.90
7598;DHT22;3840;59.32098800;18.06423600;2023-04-28T05:52:21;4.10;99.90
7598;DHT22;3840;59.32098800;18.06423600;2023-04-28T05:54:46;4.40;99.90
7598;DHT22;3840;59.32098800;18.06423600;2023-04-28T05:57:14;4.50;99.90
7598;DHT22;3840;59.32098800;18.06423600;2023-04-28T05:59:39;4.50;99.90
7598;DHT22;3840;59.32098800;18.06423600;2023-04-28T06:02:05;4.30;99.90
7598;DHT22;3840;59.32098800;18.06423600;2023-04-28T06:04:31;4.40;99.90
7598;DHT22;3840;59.32098800;18.06423600;2023-04-28T06:06:59;4.40;99.90
7598;DHT22;3840;59.32098800;18.06423600;2023-04-28T06:09:24;4.30;99.90
7598;DHT22;3840;59.32098800;18.06423600;2023-04-28T06:11:50;4.30;99.90
7598;DHT22;3840;59.32098800;18.06423600;2023-04-28T06:14:16;4.40;99.90
7598;DHT22;3840;59.32098800;18.06423600;2023-04-28T06:16:42;4.50;99.90
7598;DHT22;3840;59.32098800;18.06423600;2023-04-28T06:19:09;4.60;99.90
7598;DHT22;3840;59.32098800;18.06423600;2023-04-28T06:21:34;4.70;99.90
7598;DHT22;3840;59.32098800;18.06423600;2023-04-28T06:24:01;4.90;99.90
7598;DHT22;3840;59.32098800;18.06423600;2023-04-28T06:26:27;4.90;99.90
7598;DHT22;3840;59.32098800;18.06423600;2023-04-28T06:28:52;5.00;99.90
7598;DHT22;3840;59.32098800;18.06423600;2023-04-28T06:31:18;5.00;99.90
7598;DHT22;3840;59.32098800;18.06423600;2023-04-28T06:33:44;5.00;99.90
7598;DHT22;3840;59.32098800;18.06423600;2023-04-28T06:36:10;4.90;99.90
7598;DHT22;3840;59.32098800;18.06423600;2023-04-28T06:38:42;4.80;99.90
7598;DHT22;3840;59.32098800;18.06423600;2023-04-28T06:41:09;4.90;99.90
7598;DHT22;3840;59.32098800;18.06423600;2023-04-28T06:43:35;5.00;99.90
7598;DHT22;3840;59.32098800;18.06423600;2023-04-28T06:46:01;5.20;99.90
7598;DHT22;3840;59.32098800;18.06423600;2023-04-28T06:48:27;5.30;99.90
7598;DHT22;3840;59.32098800;18.06423600;2023-04-28T06:50:53;5.30;99.90
7598;DHT22;3840;59.32098800;18.06423600;2023-04-28T06:53:19;5.20;99.90
7598;DHT22;3840;59.32098800;18.06423600;2023-04-28T06:55:45;5.30;99.90
7598;DHT22;3840;59.32098800;18.06423600;2023-04-28T06:58:15;5.10;99.90
7598;DHT22;3840;59.32098800;18.06423600;2023-04-28T07:00:41;5.20;99.90
7598;DHT22;3840;59.32098800;18.06423600;2023-04-28T07:03:07;5.10;99.90
7598;DHT22;3840;59.32098800;18.06423600;2023-04-28T07:05:32;5.10;99.90
7598;DHT22;3840;59.32098800;18.06423600;2023-04-28T07:07:58;5.30;99.90
7598;DHT22;3840;59.32098800;18.06423600;2023-04-28T07:10:24;5.20;99.90
7598;DHT22;3840;59.32098800;18.06423600;2023-04-28T07:12:50;5.10;99.90
7598;DHT22;3840;59.32098800;18.06423600;2023-04-28T07:15:18;5.10;99.90
7598;DHT22;3840;59.32098800;18.06423600;2023-04-28T07:17:44;5.10;99.90
7598;DHT22;3840;59.32098800;18.06423600;2023-04-28T07:20:10;4.90;99.90
7598;DHT22;3840;59.32098800;18.06423600;2023-04-28T07:22:36;4.90;99.90
7598;DHT22;3840;59.32098800;18.06423600;2023-04-28T07:25:03;5.20;99.90
7598;DHT22;3840;59.32098800;18.06423600;2023-04-28T07:27:31;5.30;99.90
7598;DHT22;3840;59.32098800;18.06423600;2023-04-28T07:29:56;5.10;99.90
7598;DHT22;3840;59.32098800;18.06423600;2023-04-28T07:32:23;5.10;99.90
7598;DHT22;3840;59.32098800;18.06423600;2023-04-28T07:34:48;5.10;99.90
7598;DHT22;3840;59.32098800;18.06423600;2023-04-28T07:37:15;5.10;99.90
7598;DHT22;3840;59.32098800;18.06423600;2023-04-28T07:39:41;5.00;99.90
7598;DHT22;3840;59.32098800;18.06423600;2023-04-28T07:42:07;5.30;99.90
7598;DHT22;3840;59.32098800;18.06423600;2023-04-28T07:44:32;5.30;99.90
7598;DHT22;3840;59.32098800;18.06423600;2023-04-28T07:47:00;5.40;99.90
7598;DHT22;3840;59.32098800;18.06423600;2023-04-28T07:49:30;5.40;99.90
7598;DHT22;3840;59.32098800;18.06423600;2023-04-28T07:51:56;5.50;99.90
7598;DHT22;3840;59.32098800;18.06423600;2023-04-28T07:54:22;5.50;99.90
7598;DHT22;3840;59.32098800;18.06423600;2023-04-28T07:56:49;5.50;99.90
7598;DHT22;3840;59.32098800;18.06423600;2023-04-28T07:59:14;5.50;99.90
7598;DHT22;3840;59.32098800;18.06423600;2023-04-28T08:01:40;5.50;99.90
7598;DHT22;3840;59.32098800;18.06423600;2023-04-28T08:04:07;5.40;99.90
7598;DHT22;3840;59.32098800;18.06423600;2023-04-28T08:06:33;5.30;99.90
7598;DHT22;3840;59.32098800;18.06423600;2023-04-28T08:09:00;5.20;99.90
7598;DHT22;3840;59.32098800;18.06423600;2023-04-28T08:11:26;5.20;99.90
7598;DHT22;3840;59.32098800;18.06423600;2023-04-28T08:13:52;5.40;99.90
7598;DHT22;3840;59.32098800;18.06423600;2023-04-28T08:16:18;5.50;99.90
7598;DHT22;3840;59.32098800;18.06423600;2023-04-28T08:18:44;5.20;99.90
7598;DHT22;3840;59.32098800;18.06423600;2023-04-28T08:21:10;5.10;99.90
7598;DHT22;3840;59.32098800;18.06423600;2023-04-28T08:23:36;5.00;99.90
7598;DHT22;3840;59.32098800;18.06423600;2023-04-28T08:26:02;5.10;99.90
7598;DHT22;3840;59.32098800;18.06423600;2023-04-28T08:28:28;5.20;99.90
7598;DHT22;3840;59.32098800;18.06423600;2023-04-28T08:30:54;5.10;99.90
7598;DHT22;3840;59.32098800;18.06423600;2023-04-28T08:33:20;5.10;99.90
7598;DHT22;3840;59.32098800;18.06423600;2023-04-28T08:35:46;5.20;99.90
7598;DHT22;3840;59.32098800;18.06423600;2023-04-28T08:38:12;5.30;99.90
7598;DHT22;3840;59.32098800;18.06423600;2023-04-28T08:40:40;5.30;99.90
7598;DHT22;3840;59.32098800;18.06423600;2023-04-28T08:43:07;5.20;99.90
7598;DHT22;3840;59.32098800;18.06423600;2023-04-28T08:45:40;5.10;99.90
7598;DHT22;3840;59.32098800;18.06423600;2023-04-28T08:48:14;5.00;99.90
7598;DHT22;3840;59.32098800;18.06423600;2023-04-28T08:50:45;4.90;99.90
7598;DHT22;3840;59.32098800;18.06423600;2023-04-28T08:53:13;5.00;99.90
7598;DHT22;3840;59.32098800;18.06423600;2023-04-28T08:55:42;5.00;99.90
7598;DHT22;3840;59.32098800;18.06423600;2023-04-28T08:58:08;5.40;99.90
7598;DHT22;3840;59.32098800;18.06423600;2023-04-28T09:00:36;5.30;99.90
7598;DHT22;3840;59.32098800;18.06423600;2023-04-28T09:03:02;5.40;99.90
7598;DHT22;3840;59.32098800;18.06423600;2023-04-28T09:05:28;5.40;99.90
7598;DHT22;3840;59.32098800;18.06423600;2023-04-28T09:07:54;5.60;99.90
7598;DHT22;3840;59.32098800;18.06423600;2023-04-28T09:10:22;5.70;99.90
7598;DHT22;3840;59.32098800;18.06423600;2023-04-28T09:12:51;6.00;99.90
7598;DHT22;3840;59.32098800;18.06423600;2023-04-28T09:17:55;5.80;99.90
7598;DHT22;3840;59.32098800;18.06423600;2023-04-28T09:20:26;5.80;99.90
7598;DHT22;3840;59.32098800;18.06423600;2023-04-28T09:22:53;5.30;99.90
7598;DHT22;3840;59.32098800;18.06423600;2023-04-28T09:25:19;5.70;99.90
7598;DHT22;3840;59.32098800;18.06423600;2023-04-28T09:27:47;5.70;99.90
7598;DHT22;3840;59.32098800;18.06423600;2023-04-28T09:30:13;5.70;99.90
7598;DHT22;3840;59.32098800;18.06423600;2023-04-28T09:32:39;5.90;99.90
7598;DHT22;3840;59.32098800;18.06423600;2023-04-28T09:35:05;6.20;99.90
7598;DHT22;3840;59.32098800;18.06423600;2023-04-28T09:37:32;6.40;99.90
7598;DHT22;3840;59.32098800;18.06423600;2023-04-28T09:40:08;6.30;99.90
7598;DHT22;3840;59.32098800;18.06423600;2023-04-28T09:45:05;6.30;99.90
7598;DHT22;3840;59.32098800;18.06423600;2023-04-28T09:47:32;6.40;99.90
7598;DHT22;3840;59.32098800;18.06423600;2023-04-28T09:50:02;6.40;99.90
7598;DHT22;3840;59.32098800;18.06423600;2023-04-28T09:52:28;6.60;99.90
7598;DHT22;3840;59.32098800;18.06423600;2023-04-28T09:54:55;6.80;99.90
7598;DHT22;3840;59.32098800;18.06423600;2023-04-28T09:57:24;7.00;99.90
7598;DHT22;3840;59.32098800;18.06423600;2023-04-28T09:59:51;7.30;99.90
7598;DHT22;3840;59.32098800;18.06423600;2023-04-28T10:02:19;7.20;99.90
7598;DHT22;3840;59.32098800;18.06423600;2023-04-28T10:04:47;7.20;99.90
7598;DHT22;3840;59.32098800;18.06423600;2023-04-28T10:07:16;7.40;99.90
7598;DHT22;3840;59.32098800;18.06423600;2023-04-28T10:09:49;7.30;99.90
7598;DHT22;3840;59.32098800;18.06423600;2023-04-28T10:12:23;7.40;99.90
7598;DHT22;3840;59.32098800;18.06423600;2023-04-28T10:14:50;7.50;99.90
7598;DHT22;3840;59.32098800;18.06423600;2023-04-28T10:17:20;7.30;99.90
7598;DHT22;3840;59.32098800;18.06423600;2023-04-28T10:19:48;7.20;99.90
7598;DHT22;3840;59.32098800;18.06423600;2023-04-28T10:22:49;7.10;99.90
7598;DHT22;3840;59.32098800;18.06423600;2023-04-28T10:25:33;7.30;99.90
7598;DHT22;3840;59.32098800;18.06423600;2023-04-28T10:28:04;7.20;99.90
7598;DHT22;3840;59.32098800;18.06423600;2023-04-28T10:30:30;7.00;99.90
7598;DHT22;3840;59.32098800;18.06423600;2023-04-28T10:35:45;7.30;99.90
7598;DHT22;3840;59.32098800;18.06423600;2023-04-28T10:38:21;7.50;99.90
7598;DHT22;3840;59.32098800;18.06423600;2023-04-28T10:40:51;7.30;99.90
7598;DHT22;3840;59.32098800;18.06423600;2023-04-28T10:56:21;7.30;99.90
7598;DHT22;3840;59.32098800;18.06423600;2023-04-28T10:58:50;7.40;99.90
7598;DHT22;3840;59.32098800;18.06423600;2023-04-28T11:03:58;7.40;99.90
7598;DHT22;3840;59.32098800;18.06423600;2023-04-28T11:06:44;7.40;99.90
7598;DHT22;3840;59.32098800;18.06423600;2023-04-28T11:11:37;7.70;99.90
7598;DHT22;3840;59.32098800;18.06423600;2023-04-28T11:19:23;8.00;99.90
7598;DHT22;3840;59.32098800;18.06423600;2023-04-28T11:21:51;8.00;99.90
7598;DHT22;3840;59.32098800;18.06423600;2023-04-28T11:24:20;8.10;99.90
7598;DHT22;3840;59.32098800;18.06423600;2023-04-28T11:26:53;8.00;99.90
7598;DHT22;3840;59.32098800;18.06423600;2023-04-28T11:29:39;8.00;99.90
7598;DHT22;3840;59.32098800;18.06423600;2023-04-28T11:32:07;8.00;99.90
7598;DHT22;3840;59.32098800;18.06423600;2023-04-28T11:34:34;8.10;99.90
7598;DHT22;3840;59.32098800;18.06423600;2023-04-28T11:37:01;8.20;99.90
7598;DHT22;3840;59.32098800;18.06423600;2023-04-28T11:39:29;8.40;99.90
7598;DHT22;3840;59.32098800;18.06423600;2023-04-28T11:41:56;8.60;99.90
7598;DHT22;3840;59.32098800;18.06423600;2023-04-28T11:44:23;8.70;99.90
7598;DHT22;3840;59.32098800;18.06423600;2023-04-28T11:46:52;8.50;99.90
7598;DHT22;3840;59.32098800;18.06423600;2023-04-28T11:49:44;8.50;99.90
7598;DHT22;3840;59.32098800;18.06423600;2023-04-28T11:52:11;8.70;99.90
7598;DHT22;3840;59.32098800;18.06423600;2023-04-28T11:54:37;8.80;99.90
7598;DHT22;3840;59.32098800;18.06423600;2023-04-28T11:57:04;8.60;99.90
7598;DHT22;3840;59.32098800;18.06423600;2023-04-28T11:59:33;9.00;99.90
7598;DHT22;3840;59.32098800;18.06423600;2023-04-28T12:02:04;9.00;99.90
7598;DHT22;3840;59.32098800;18.06423600;2023-04-28T12:04:31;9.10;99.90
7598;DHT22;3840;59.32098800;18.06423600;2023-04-28T12:07:05;9.00;99.90
7598;DHT22;3840;59.32098800;18.06423600;2023-04-28T12:09:32;9.00;99.90
7598;DHT22;3840;59.32098800;18.06423600;2023-04-28T12:12:00;9.00;99.90
7598;DHT22;3840;59.32098800;18.06423600;2023-04-28T12:14:28;9.10;99.90
7598;DHT22;3840;59.32098800;18.06423600;2023-04-28T12:16:54;9.00;99.90
7598;DHT22;3840;59.32098800;18.06423600;2023-04-28T12:19:21;9.00;99.90
7598;DHT22;3840;59.32098800;18.06423600;2023-04-28T12:22:04;9.00;99.90
7598;DHT22;3840;59.32098800;18.06423600;2023-04-28T12:24:30;9.20;99.90
7598;DHT22;3840;59.32098800;18.06423600;2023-04-28T12:27:19;8.80;99.90
7598;DHT22;3840;59.32098800;18.06423600;2023-04-28T12:29:49;9.10;99.90
7598;DHT22;3840;59.32098800;18.06423600;2023-04-28T12:32:17;9.40;99.90
7598;DHT22;3840;59.32098800;18.06423600;2023-04-28T12:34:45;9.30;99.90
7598;DHT22;3840;59.32098800;18.06423600;2023-04-28T12:37:12;9.20;99.90
7598;DHT22;3840;59.32098800;18.06423600;2023-04-28T12:39:39;9.10;99.90
7598;DHT22;3840;59.32098800;18.06423600;2023-04-28T12:42:05;9.00;99.90
7598;DHT22;3840;59.32098800;18.06423600;2023-04-28T12:44:40;9.00;99.90
7598;DHT22;3840;59.32098800;18.06423600;2023-04-28T12:47:08;9.10;99.90
7598;DHT22;3840;59.32098800;18.06423600;2023-04-28T12:49:35;9.00;99.90
7598;DHT22;3840;59.32098800;18.06423600;2023-04-28T12:52:01;9.10;99.90
7598;DHT22;3840;59.32098800;18.06423600;2023-04-28T12:54:29;9.20;99.90
7598;DHT22;3840;59.32098800;18.06423600;2023-04-28T12:56:55;9.20;99.90
7598;DHT22;3840;59.32098800;18.06423600;2023-04-28T12:59:21;9.40;99.90
7598;DHT22;3840;59.32098800;18.06423600;2023-04-28T13:01:48;9.40;99.90
7598;DHT22;3840;59.32098800;18.06423600;2023-04-28T13:04:15;9.60;99.90
7598;DHT22;3840;59.32098800;18.06423600;2023-04-28T13:06:42;9.70;99.90
7598;DHT22;3840;59.32098800;18.06423600;2023-04-28T13:09:12;9.90;99.90
7598;DHT22;3840;59.32098800;18.06423600;2023-04-28T13:11:39;10.10;99.90
7598;DHT22;3840;59.32098800;18.06423600;2023-04-28T13:14:05;10.00;99.90
7598;DHT22;3840;59.32098800;18.06423600;2023-04-28T13:16:31;10.00;99.90
7598;DHT22;3840;59.32098800;18.06423600;2023-04-28T13:18:58;10.10;99.90
7598;DHT22;3840;59.32098800;18.06423600;2023-04-28T13:21:24;10.20;99.90
7598;DHT22;3840;59.32098800;18.06423600;2023-04-28T13:23:54;10.30;99.90
7598;DHT22;3840;59.32098800;18.06423600;2023-04-28T13:26:21;10.10;99.90
7598;DHT22;3840;59.32098800;18.06423600;2023-04-28T13:28:50;10.30;99.90
7598;DHT22;3840;59.32098800;18.06423600;2023-04-28T13:31:18;10.40;99.90
7598;DHT22;3840;59.32098800;18.06423600;2023-04-28T13:33:50;10.40;99.90
7598;DHT22;3840;59.32098800;18.06423600;2023-04-28T13:36:16;10.40;99.90
7598;DHT22;3840;59.32098800;18.06423600;2023-04-28T13:38:42;10.40;99.90
7598;DHT22;3840;59.32098800;18.06423600;2023-04-28T13:41:13;10.40;99.90
7598;DHT22;3840;59.32098800;18.06423600;2023-04-28T13:43:41;10.00;99.90
7598;DHT22;3840;59.32098800;18.06423600;2023-04-28T13:46:08;9.70;99.90
7598;DHT22;3840;59.32098800;18.06423600;2023-04-28T13:48:34;9.80;99.90
7598;DHT22;3840;59.32098800;18.06423600;2023-04-28T13:51:03;10.00;99.90
7598;DHT22;3840;59.32098800;18.06423600;2023-04-28T13:53:30;10.10;99.90
7598;DHT22;3840;59.32098800;18.06423600;2023-04-28T13:55:56;10.10;99.90
7598;DHT22;3840;59.32098800;18.06423600;2023-04-28T13:58:28;10.00;99.90
7598;DHT22;3840;59.32098800;18.06423600;2023-04-28T14:00:55;9.90;99.90
7598;DHT22;3840;59.32098800;18.06423600;2023-04-28T14:03:22;9.70;99.90
7598;DHT22;3840;59.32098800;18.06423600;2023-04-28T14:05:52;9.70;99.90
7598;DHT22;3840;59.32098800;18.06423600;2023-04-28T14:08:19;9.80;99.90
7598;DHT22;3840;59.32098800;18.06423600;2023-04-28T14:10:45;9.60;99.90
7598;DHT22;3840;59.32098800;18.06423600;2023-04-28T14:13:11;9.40;99.90
7598;DHT22;3840;59.32098800;18.06423600;2023-04-28T14:15:37;9.40;99.90